createdAt,value
2018-06-01T00:02:18.521Z,25.80
2018-06-01T00:04:50.421Z,25.80
2018-06-01T00:07:22.874Z,25.80
2018-06-01T00:09:53.449Z,25.80
2018-06-01T00:12:24.461Z,25.80
2018-06-01T00:14:55.703Z,25.80
2018-06-01T00:17:26.309Z,25.80
2018-06-01T00:19:57.665Z,25.80
2018-06-01T00:22:28.398Z,25.80
2018-06-01T00:24:59.051Z,25.80
2018-06-01T00:27:30.776Z,25.40
2018-06-01T00:30:02.223Z,24.00
2018-06-01T00:32:39.441Z,22.70
2018-06-01T00:35:25.831Z,22.00
2018-06-01T00:37:56.922Z,21.40
2018-06-01T00:40:28.417Z,20.90
2018-06-01T00:43:13.157Z,20.80
2018-06-01T00:45:45.942Z,20.70
2018-06-01T00:48:18.015Z,20.60
2018-06-01T00:50:49.681Z,20.60
2018-06-01T00:53:21.380Z,20.70
2018-06-01T00:55:52.455Z,20.80
2018-06-01T00:58:25.391Z,20.80
2018-06-01T01:00:58.710Z,20.90
2018-06-01T01:03:29.731Z,20.80
2018-06-01T01:06:02.017Z,20.90
2018-06-01T01:08:34.079Z,20.80
2018-06-01T01:11:04.128Z,20.90
2018-06-01T01:13:34.497Z,20.90
2018-06-01T01:16:04.651Z,20.90
2018-06-01T01:18:35.446Z,20.80
2018-06-01T01:21:06.286Z,20.90
2018-06-01T01:23:38.235Z,20.90
2018-06-01T01:26:08.610Z,21.00
2018-06-01T01:29:03.711Z,21.00
2018-06-01T01:31:34.264Z,21.10
2018-06-01T01:34:04.248Z,21.20
2018-06-01T01:36:34.755Z,21.40
2018-06-01T01:39:05.999Z,21.40
2018-06-01T01:41:37.319Z,21.80
2018-06-01T01:44:07.577Z,21.70
2018-06-01T01:46:38.798Z,21.90
2018-06-01T01:49:09.650Z,22.00
2018-06-01T01:51:40.783Z,22.00
2018-06-01T01:54:11.794Z,21.70
2018-06-01T01:56:42.862Z,21.70
2018-06-01T01:59:15.836Z,21.60
2018-06-01T02:01:46.853Z,21.60
2018-06-01T02:04:18.800Z,21.60
2018-06-01T02:06:51.445Z,21.50
2018-06-01T02:09:23.582Z,21.40
2018-06-01T02:11:55.980Z,21.40
2018-06-01T02:14:27.499Z,21.20
2018-06-01T02:16:58.226Z,21.20
2018-06-01T02:19:28.704Z,21.20
2018-06-01T02:21:59.167Z,21.10
2018-06-01T02:24:29.553Z,21.00
2018-06-01T02:27:00.962Z,21.00
2018-06-01T02:29:31.600Z,20.90
2018-06-01T02:32:01.648Z,20.90
2018-06-01T02:34:32.100Z,20.80
2018-06-01T02:37:02.487Z,20.70
2018-06-01T02:39:34.358Z,20.60
2018-06-01T02:42:07.164Z,20.40
2018-06-01T02:44:37.560Z,20.40
2018-06-01T02:47:14.259Z,20.30
2018-06-01T02:49:45.607Z,20.10
2018-06-01T02:52:16.806Z,20.10
2018-06-01T02:54:47.308Z,20.20
2018-06-01T02:57:21.655Z,20.30
2018-06-01T02:59:53.154Z,20.30
2018-06-01T03:02:24.299Z,20.30
2018-06-01T03:04:55.550Z,20.30
2018-06-01T03:07:26.063Z,20.30
2018-06-01T03:09:57.064Z,20.30
2018-06-01T03:12:28.299Z,20.60
2018-06-01T03:14:59.733Z,20.60
2018-06-01T03:17:30.334Z,20.70
2018-06-01T03:20:01.018Z,20.70
2018-06-01T03:22:31.663Z,20.70
2018-06-01T03:25:03.595Z,21.00
2018-06-01T03:27:35.095Z,21.00
2018-06-01T03:30:05.815Z,21.30
2018-06-01T03:32:38.637Z,22.00
2018-06-01T03:35:09.875Z,21.90
2018-06-01T03:37:40.541Z,22.30
2018-06-01T03:40:11.220Z,22.50
2018-06-01T03:42:41.891Z,22.60
2018-06-01T03:45:16.947Z,22.60
2018-06-01T03:47:49.020Z,22.50
2018-06-01T03:50:19.507Z,22.60
2018-06-01T03:52:51.183Z,22.70
2018-06-01T03:55:28.636Z,22.90
2018-06-01T03:57:59.775Z,23.00
2018-06-01T04:00:31.486Z,23.00
2018-06-01T04:03:04.565Z,23.00
2018-06-01T04:05:34.995Z,22.70
2018-06-01T04:08:06.066Z,22.60
2018-06-01T04:10:37.571Z,22.00
2018-06-01T04:13:08.127Z,22.00
2018-06-01T04:15:40.142Z,21.10
2018-06-01T04:18:10.798Z,21.10
2018-06-01T04:20:41.272Z,20.80
2018-06-01T04:23:12.724Z,20.50
2018-06-01T04:25:44.845Z,20.80
2018-06-01T04:28:15.369Z,20.80
2018-06-01T04:30:46.595Z,20.60
2018-06-01T04:33:24.779Z,20.40
2018-06-01T04:36:13.789Z,20.70
2018-06-01T04:38:44.459Z,20.50
2018-06-01T04:41:16.859Z,20.40
2018-06-01T04:43:47.526Z,20.10
2018-06-01T04:46:25.959Z,19.60
2018-06-01T04:48:58.238Z,19.90
2018-06-01T04:51:28.996Z,19.80
2018-06-01T04:54:00.194Z,20.30
2018-06-01T04:56:30.626Z,20.70
2018-06-01T04:59:03.059Z,21.50
2018-06-01T05:01:34.037Z,21.50
2018-06-01T05:04:04.779Z,21.90
2018-06-01T05:06:36.281Z,22.60
2018-06-01T05:09:07.953Z,22.60
2018-06-01T05:11:38.729Z,22.80
2018-06-01T05:14:11.791Z,22.50
2018-06-01T05:16:45.448Z,22.30
2018-06-01T05:19:17.337Z,22.40
2018-06-01T05:21:48.663Z,22.30
2018-06-01T05:24:28.772Z,22.00
2018-06-01T05:26:59.413Z,22.00
2018-06-01T05:29:30.837Z,22.10
2018-06-01T05:32:10.264Z,22.00
2018-06-01T05:35:01.704Z,21.00
2018-06-01T05:38:05.789Z,20.70
2018-06-01T05:40:38.584Z,20.70
2018-06-01T05:43:09.037Z,20.40
2018-06-01T05:45:39.565Z,20.60
2018-06-01T05:48:11.401Z,20.60
2018-06-01T05:50:42.863Z,20.80
2018-06-01T05:53:14.331Z,20.80
2018-06-01T05:55:45.815Z,21.10
2018-06-01T05:58:17.176Z,21.00
2018-06-01T06:00:48.653Z,20.70
2018-06-01T06:03:22.492Z,20.10
2018-06-01T06:05:53.360Z,20.00
2018-06-01T06:08:24.205Z,20.00
2018-06-01T06:10:55.689Z,20.30
2018-06-01T06:13:27.471Z,20.00
2018-06-01T06:15:58.079Z,20.00
2018-06-01T06:18:28.540Z,20.10
2018-06-01T06:21:00.289Z,20.00
2018-06-01T06:23:30.945Z,20.10
2018-06-01T06:26:01.844Z,20.00
2018-06-01T06:28:36.921Z,19.50
2018-06-01T06:31:07.780Z,19.50
2018-06-01T06:33:39.092Z,19.50
2018-06-01T06:36:09.772Z,19.50
2018-06-01T06:38:41.907Z,19.50
2018-06-01T06:41:15.254Z,19.50
2018-06-01T06:43:45.965Z,19.60
2018-06-01T06:46:17.502Z,20.10
2018-06-01T06:49:01.006Z,20.10
2018-06-01T06:51:31.970Z,20.00
2018-06-01T06:54:02.591Z,19.90
2018-06-01T06:56:33.244Z,20.00
2018-06-01T06:59:03.101Z,19.90
2018-06-01T07:01:33.934Z,19.70
2018-06-01T07:04:05.094Z,19.50
2018-06-01T07:06:36.422Z,19.60
2018-06-01T07:09:08.801Z,19.50
2018-06-01T07:11:39.541Z,19.50
2018-06-01T07:14:18.308Z,19.60
2018-06-01T07:16:50.068Z,19.70
2018-06-01T07:19:27.046Z,19.60
2018-06-01T07:21:58.896Z,19.60
2018-06-01T07:24:29.810Z,19.60
2018-06-01T07:27:00.276Z,19.60
2018-06-01T07:29:31.532Z,19.70
2018-06-01T07:32:02.506Z,19.60
2018-06-01T07:34:33.108Z,19.60
2018-06-01T07:37:04.057Z,19.60
2018-06-01T07:39:34.851Z,19.60
2018-06-01T07:42:06.363Z,19.40
2018-06-01T07:44:36.932Z,19.40
2018-06-01T07:47:16.729Z,19.40
2018-06-01T07:49:49.111Z,19.40
2018-06-01T07:52:20.336Z,19.40
2018-06-01T07:54:55.115Z,19.40
2018-06-01T07:57:26.044Z,19.40
2018-06-01T08:00:01.055Z,19.40
2018-06-01T08:02:32.458Z,19.40
2018-06-01T08:05:03.956Z,19.50
2018-06-01T08:07:35.229Z,19.60
2018-06-01T08:10:27.047Z,19.60
2018-06-01T08:13:08.356Z,19.60
2018-06-01T08:15:44.363Z,19.60
2018-06-01T08:18:22.170Z,19.60
2018-06-01T08:20:53.990Z,19.80
2018-06-01T08:23:26.619Z,19.80
2018-06-01T08:26:03.242Z,19.80
2018-06-01T08:28:34.724Z,19.80
2018-06-01T08:31:05.610Z,19.80
2018-06-01T08:33:37.167Z,20.20
2018-06-01T08:36:08.477Z,20.20
2018-06-01T08:38:39.934Z,20.10
2018-06-01T08:41:11.175Z,20.10
2018-06-01T08:43:42.045Z,20.10
2018-06-01T08:46:15.440Z,20.10
2018-06-01T08:48:46.604Z,20.20
2018-06-01T08:51:22.089Z,20.20
2018-06-01T08:53:55.140Z,20.20
2018-06-01T08:56:27.108Z,20.30
2018-06-01T08:58:57.690Z,20.50
2018-06-01T09:01:28.235Z,20.70
2018-06-01T09:03:59.592Z,20.70
2018-06-01T09:06:31.143Z,21.00
2018-06-01T09:09:03.461Z,21.30
2018-06-01T09:11:34.072Z,21.30
2018-06-01T09:14:04.421Z,21.60
2018-06-01T09:16:35.023Z,21.70
2018-06-01T09:19:09.543Z,21.90
2018-06-01T09:21:40.177Z,21.90
2018-06-01T09:24:10.979Z,21.90
2018-06-01T09:26:41.674Z,21.90
2018-06-01T09:29:14.157Z,22.10
2018-06-01T09:31:46.289Z,22.20
2018-06-01T09:34:20.677Z,22.10
2018-06-01T09:36:56.181Z,21.90
2018-06-01T09:39:28.623Z,21.70
2018-06-01T09:41:59.335Z,21.60
2018-06-01T09:44:29.934Z,21.30
2018-06-01T09:47:00.818Z,21.40
2018-06-01T09:49:31.425Z,21.40
2018-06-01T09:52:02.868Z,21.60
2018-06-01T09:54:34.636Z,21.70
2018-06-01T09:57:31.717Z,21.70
2018-06-01T10:00:03.190Z,22.00
2018-06-01T10:02:47.101Z,22.10
2018-06-01T10:05:19.669Z,22.30
2018-06-01T10:07:52.668Z,22.50
2018-06-01T10:10:32.911Z,22.60
2018-06-01T10:13:24.093Z,22.70
2018-06-01T10:19:01.342Z,22.70
2018-06-01T10:21:38.026Z,22.70
2018-06-01T10:24:11.455Z,22.60
2018-06-01T10:26:42.978Z,22.50
2018-06-01T10:29:25.193Z,22.60
2018-06-01T10:31:57.442Z,22.70
2018-06-01T10:34:33.198Z,22.80
2018-06-01T10:37:05.070Z,22.90
2018-06-01T10:39:35.537Z,22.70
2018-06-01T10:42:07.104Z,22.70
2018-06-01T10:44:37.802Z,22.70
2018-06-01T10:47:09.664Z,22.70
2018-06-01T10:49:45.404Z,22.70
2018-06-01T10:52:25.185Z,22.60
2018-06-01T10:55:05.042Z,22.60
2018-06-01T10:57:39.908Z,22.60
2018-06-01T11:00:29.438Z,22.70
2018-06-01T11:06:11.618Z,23.10
2018-06-01T11:08:46.410Z,23.30
2018-06-01T11:11:59.111Z,23.30
2018-06-01T11:17:16.347Z,23.10
2018-06-01T11:19:54.884Z,23.10
2018-06-01T11:22:25.747Z,23.00
2018-06-01T11:24:58.712Z,22.90
2018-06-01T11:27:33.893Z,23.00
2018-06-01T11:30:04.200Z,22.90
2018-06-01T11:32:35.711Z,22.80
2018-06-01T11:35:10.370Z,22.70
2018-06-01T11:37:47.609Z,22.70
2018-06-01T11:40:19.515Z,22.80
2018-06-01T11:42:56.090Z,22.60
2018-06-01T11:45:27.716Z,22.60
2018-06-01T11:47:58.309Z,22.40
2018-06-01T11:50:29.867Z,22.70
2018-06-01T11:53:05.157Z,22.70
2018-06-01T11:55:36.311Z,22.70
2018-06-01T11:58:10.387Z,22.90
2018-06-01T12:00:43.877Z,22.90
2018-06-01T12:03:14.619Z,22.90
2018-06-01T12:06:03.750Z,23.30
2018-06-01T12:08:49.785Z,23.20
2018-06-01T12:11:22.956Z,23.50
2018-06-01T12:14:20.343Z,23.50
2018-06-01T12:17:19.867Z,23.40
2018-06-01T12:19:51.954Z,23.60
2018-06-01T12:22:23.364Z,23.60
2018-06-01T12:24:53.823Z,23.70
2018-06-01T12:27:25.153Z,23.70
2018-06-01T12:29:55.913Z,23.90
2018-06-01T12:32:28.574Z,24.10
2018-06-01T12:34:59.726Z,24.10
2018-06-01T12:37:30.784Z,24.00
2018-06-01T12:40:02.461Z,23.90
2018-06-01T12:42:40.168Z,23.90
2018-06-01T12:45:11.594Z,24.00
2018-06-01T12:47:52.947Z,24.00
2018-06-01T12:50:30.530Z,23.70
2018-06-01T12:53:02.501Z,23.70
2018-06-01T12:55:34.221Z,23.80
2018-06-01T12:58:04.540Z,23.90
2018-06-01T13:01:03.001Z,24.00
2018-06-01T13:03:58.617Z,24.10
2018-06-01T13:06:32.077Z,24.10
2018-06-01T13:09:02.703Z,24.10
2018-06-01T13:11:37.697Z,24.30
2018-06-01T13:14:10.155Z,24.20
2018-06-01T13:16:44.997Z,24.30
2018-06-01T13:19:18.462Z,24.10
2018-06-01T13:21:50.339Z,24.10
2018-06-01T13:24:22.695Z,23.90
2018-06-01T13:26:55.791Z,24.20
2018-06-01T13:29:26.910Z,24.40
2018-06-01T13:31:57.596Z,24.40
2018-06-01T13:34:28.351Z,24.60
2018-06-01T13:37:02.155Z,24.70
2018-06-01T13:39:33.842Z,24.80
2018-06-01T13:42:08.605Z,25.00
2018-06-01T13:44:39.310Z,25.00
2018-06-01T13:47:10.829Z,25.10
2018-06-01T13:49:41.098Z,25.20
2018-06-01T13:52:15.413Z,25.40
2018-06-01T13:54:52.331Z,25.50
2018-06-01T13:57:22.600Z,25.60
2018-06-01T14:00:00.365Z,25.70
2018-06-01T14:02:31.288Z,25.70
2018-06-01T14:05:02.015Z,25.80
2018-06-01T14:07:34.775Z,25.60
2018-06-01T14:10:05.922Z,25.60
2018-06-01T14:12:37.012Z,25.80
2018-06-01T14:15:08.367Z,25.90
2018-06-01T14:17:40.098Z,25.70
2018-06-01T14:20:12.773Z,25.70
2018-06-01T14:22:43.813Z,25.80
2018-06-01T14:25:24.584Z,25.90
2018-06-01T14:27:57.003Z,25.90
2018-06-01T14:30:28.161Z,25.90
2018-06-01T14:32:59.490Z,25.90
2018-06-01T14:35:31.574Z,26.20
2018-06-01T14:38:02.344Z,26.30
2018-06-01T14:40:33.540Z,26.40
2018-06-01T14:43:05.899Z,26.40
2018-06-01T14:45:44.846Z,26.40
2018-06-01T14:48:19.295Z,26.80
2018-06-01T14:50:50.213Z,26.70
2018-06-01T14:53:25.058Z,26.30
2018-06-01T14:55:58.379Z,26.00
2018-06-01T14:58:30.029Z,25.80
2018-06-01T15:01:01.923Z,25.70
2018-06-01T15:03:35.141Z,25.70
2018-06-01T15:06:07.376Z,25.70
2018-06-01T15:08:39.583Z,25.80
2018-06-01T15:11:10.720Z,25.70
2018-06-01T15:13:41.323Z,25.70
2018-06-01T15:16:18.160Z,25.90
2018-06-01T15:18:48.554Z,25.90
2018-06-01T15:21:27.149Z,26.00
2018-06-01T15:23:58.383Z,26.00
2018-06-01T15:26:29.851Z,26.10
2018-06-01T15:29:01.152Z,26.40
2018-06-01T15:31:33.253Z,26.40
2018-06-01T15:34:05.822Z,26.50
2018-06-01T15:36:37.112Z,26.50
2018-06-01T15:39:08.090Z,26.60
2018-06-01T15:41:38.928Z,26.90
2018-06-01T15:44:10.883Z,26.90
2018-06-01T15:52:15.727Z,26.90
2018-06-01T15:54:46.500Z,27.00
2018-06-01T15:57:16.365Z,27.60
2018-06-01T15:59:48.521Z,27.60
2018-06-01T16:02:23.633Z,27.50
2018-06-01T16:04:55.115Z,27.70
2018-06-01T16:07:27.907Z,27.70
2018-06-01T16:09:58.301Z,27.90
2018-06-01T16:12:31.952Z,28.00
2018-06-01T16:15:05.856Z,28.00
2018-06-01T16:17:37.401Z,28.20
2018-06-01T16:20:08.052Z,28.50
2018-06-01T16:22:38.786Z,28.90
2018-06-01T16:25:09.301Z,28.90
2018-06-01T16:27:40.155Z,28.80
2018-06-01T16:30:10.847Z,28.80
2018-06-01T16:32:41.677Z,29.00
2018-06-01T16:35:13.174Z,29.40
2018-06-01T16:37:44.460Z,29.80
2018-06-01T16:40:16.062Z,30.00
2018-06-01T16:42:48.214Z,29.80
2018-06-01T16:45:19.025Z,29.60
2018-06-01T16:47:52.055Z,28.80
2018-06-01T16:50:23.334Z,28.80
2018-06-01T16:53:00.652Z,29.00
2018-06-01T16:55:32.029Z,29.50
2018-06-01T16:58:02.792Z,30.10
2018-06-01T17:00:34.855Z,30.50
2018-06-01T17:03:06.389Z,30.50
2018-06-01T17:05:47.029Z,30.30
2018-06-01T17:08:19.700Z,30.30
2018-06-01T17:10:57.730Z,30.40
2018-06-01T17:13:48.416Z,30.50
2018-06-01T17:16:36.328Z,30.80
2018-06-01T17:19:12.419Z,30.90
2018-06-01T17:21:42.765Z,30.60
2018-06-01T17:24:13.213Z,30.50
2018-06-01T17:26:46.677Z,30.90
2018-06-01T17:29:19.978Z,31.20
2018-06-01T17:31:50.066Z,31.70
2018-06-01T17:34:21.607Z,31.90
2018-06-01T17:36:59.216Z,31.90
2018-06-01T17:39:30.520Z,31.80
2018-06-01T17:42:01.730Z,31.60
2018-06-01T17:44:33.860Z,31.60
2018-06-01T17:47:05.301Z,31.30
2018-06-01T17:49:36.022Z,31.10
2018-06-01T17:52:27.618Z,31.10
2018-06-01T17:55:05.515Z,31.10
2018-06-01T17:57:36.462Z,31.10
2018-06-01T18:00:06.448Z,31.30
2018-06-01T18:02:37.341Z,31.10
2018-06-01T18:05:08.269Z,31.10
2018-06-01T18:07:38.222Z,31.20
2018-06-01T18:10:08.235Z,31.00
2018-06-01T18:12:39.215Z,30.30
2018-06-01T18:15:10.200Z,30.30
2018-06-01T18:17:40.233Z,30.10
2018-06-01T18:20:10.867Z,29.90
2018-06-01T18:22:41.659Z,29.70
2018-06-01T18:25:15.309Z,29.70
2018-06-01T18:27:46.728Z,29.60
2018-06-01T18:30:18.910Z,29.50
2018-06-01T18:32:54.539Z,29.10
2018-06-01T18:35:27.114Z,29.00
2018-06-01T18:37:58.316Z,28.90
2018-06-01T18:40:29.376Z,28.80
2018-06-01T18:43:01.177Z,28.70
2018-06-01T18:45:33.164Z,28.40
2018-06-01T18:48:03.461Z,28.40
2018-06-01T18:50:35.867Z,28.30
2018-06-01T18:53:06.402Z,28.30
2018-06-01T18:55:36.961Z,28.10
2018-06-01T18:58:08.305Z,27.80
2018-06-01T19:00:39.574Z,27.60
2018-06-01T19:03:10.167Z,27.20
2018-06-01T19:05:42.305Z,26.90
2018-06-01T19:08:18.082Z,26.60
2018-06-01T19:10:49.369Z,26.40
2018-06-01T19:13:22.345Z,26.30
2018-06-01T19:15:53.292Z,26.30
2018-06-01T19:18:25.471Z,26.20
2018-06-01T19:20:57.367Z,26.00
2018-06-01T19:23:46.196Z,25.90
2018-06-01T19:26:19.236Z,25.80
2018-06-01T19:28:50.073Z,25.70
2018-06-01T19:31:22.187Z,25.70
2018-06-01T19:33:55.089Z,25.50
2018-06-01T19:36:26.053Z,25.40
2018-06-01T19:39:03.599Z,25.30
2018-06-01T19:41:35.148Z,25.30
2018-06-01T19:44:07.981Z,25.30
2018-06-01T19:46:39.285Z,25.30
2018-06-01T19:49:45.427Z,25.20
2018-06-01T19:52:29.048Z,25.20
2018-06-01T19:55:16.654Z,25.10
2018-06-01T19:57:50.348Z,24.90
2018-06-01T20:00:29.044Z,24.60
2018-06-01T20:02:59.675Z,24.60
2018-06-01T20:05:40.913Z,24.40
2018-06-01T20:08:12.628Z,24.20
2018-06-01T20:10:44.833Z,24.00
2018-06-01T20:13:20.498Z,24.00
2018-06-01T20:15:53.140Z,23.90
2018-06-01T20:18:24.158Z,23.90
2018-06-01T20:20:54.894Z,23.80
2018-06-01T20:23:26.337Z,23.70
2018-06-01T20:26:04.525Z,23.60
2018-06-01T20:28:35.264Z,23.60
2018-06-01T20:31:06.424Z,23.40
2018-06-01T20:33:37.631Z,23.40
2018-06-01T20:36:09.421Z,23.30
2018-06-01T20:38:42.894Z,23.30
2018-06-01T20:41:16.327Z,23.20
2018-06-01T20:43:48.931Z,23.20
2018-06-01T20:46:21.236Z,23.10
2018-06-01T20:48:54.835Z,22.90
2018-06-01T20:51:25.973Z,22.90
2018-06-01T20:54:00.530Z,22.80
2018-06-01T20:56:35.659Z,22.80
2018-06-01T20:59:17.061Z,22.80
2018-06-01T21:01:48.839Z,22.80
2018-06-01T21:04:27.807Z,22.80
2018-06-01T21:07:00.466Z,22.70
2018-06-01T21:09:36.174Z,22.90
2018-06-01T21:12:11.351Z,22.80
2018-06-01T21:14:42.270Z,22.90
2018-06-01T21:17:14.892Z,23.00
2018-06-01T21:19:47.805Z,23.10
2018-06-01T21:22:33.667Z,23.00
2018-06-01T21:25:05.433Z,23.20
2018-06-01T21:27:37.330Z,23.10
2018-06-01T21:30:07.797Z,23.00
2018-06-01T21:32:44.097Z,22.90
2018-06-01T21:35:16.683Z,22.80
2018-06-01T21:37:47.802Z,22.80
2018-06-01T21:40:20.974Z,22.80
2018-06-01T21:42:53.772Z,22.80
2018-06-01T21:45:25.802Z,22.80
2018-06-01T21:47:56.816Z,22.80
2018-06-01T21:50:27.591Z,22.80
2018-06-01T21:52:58.121Z,22.90
2018-06-01T21:55:29.680Z,22.90
2018-06-01T21:58:01.557Z,22.80
2018-06-01T22:00:35.991Z,22.80
2018-06-01T22:03:07.739Z,22.70
2018-06-01T22:05:38.216Z,22.70
2018-06-01T22:08:09.150Z,22.60
2018-06-01T22:10:40.025Z,22.60
2018-06-01T22:13:10.828Z,22.60
2018-06-01T22:15:41.358Z,22.50
2018-06-01T22:18:12.565Z,22.60
2018-06-01T22:20:45.106Z,22.60
2018-06-01T22:23:19.056Z,22.50
2018-06-01T22:25:53.282Z,22.50
2018-06-01T22:28:24.759Z,22.20
2018-06-01T22:30:55.580Z,22.10
2018-06-01T22:33:28.087Z,22.00
2018-06-01T22:35:59.714Z,22.10
2018-06-01T22:38:30.710Z,22.00
2018-06-01T22:41:01.970Z,21.80
2018-06-01T22:43:33.234Z,22.00
2018-06-01T22:46:03.697Z,22.10
2018-06-01T22:48:35.498Z,22.10
2018-06-01T22:51:07.195Z,22.10
2018-06-01T22:53:37.643Z,21.90
2018-06-01T22:56:09.419Z,21.50
2018-06-01T22:58:40.790Z,21.60
2018-06-01T23:01:10.950Z,21.40
2018-06-01T23:03:42.854Z,21.30
2018-06-01T23:08:49.319Z,21.20
2018-06-01T23:11:21.191Z,21.00
2018-06-01T23:13:51.855Z,20.90
2018-06-01T23:16:22.383Z,20.80
2018-06-01T23:18:56.496Z,20.80
2018-06-01T23:21:27.573Z,20.90
2018-06-01T23:23:58.798Z,20.80
2018-06-01T23:26:29.141Z,20.80
2018-06-01T23:29:00.852Z,20.50
2018-06-01T23:31:38.977Z,20.50
2018-06-01T23:34:11.256Z,20.40
2018-06-01T23:36:47.069Z,20.30
2018-06-01T23:39:20.890Z,20.30
2018-06-01T23:41:52.828Z,20.40
2018-06-01T23:44:30.406Z,20.40
2018-06-01T23:47:01.255Z,20.40
2018-06-01T23:49:31.686Z,20.40
2018-06-01T23:52:02.769Z,20.50
2018-06-01T23:54:33.971Z,20.70
2018-06-01T23:57:04.917Z,20.70
2018-06-01T23:59:36.754Z,20.70
